sensor_id;sensor_type;location;lat;lon;timestamp;pressure;altitude;pressure_sealevel;temperature
43292;BMP280;28754;47.700;7.924;2023-04-24T00:02:13;90543.28;;;11.21
43292;BMP280;28754;47.700;7.924;2023-04-24T00:05:01;90546.03;;;11.25
43292;BMP280;28754;47.700;7.924;2023-04-24T00:07:50;90540.16;;;11.24
43292;BMP280;28754;47.700;7.924;2023-04-24T00:10:41;90542.44;;;11.26
43292;BMP280;28754;47.700;7.924;2023-04-24T00:13:28;90533.13;;;11.16
43292;BMP280;28754;47.700;7.924;2023-04-24T00:16:17;90537.69;;;11.19
43292;BMP280;28754;47.700;7.924;2023-04-24T00:19:03;90550.50;;;11.19
43292;BMP280;28754;47.700;7.924;2023-04-24T00:21:52;90543.38;;;11.16
43292;BMP280;28754;47.700;7.924;2023-04-24T00:24:39;90557.97;;;11.16
43292;BMP280;28754;47.700;7.924;2023-04-24T00:27:26;90538.03;;;11.13
43292;BMP280;28754;47.700;7.924;2023-04-24T00:30:13;90548.28;;;11.13
43292;BMP280;28754;47.700;7.924;2023-04-24T00:32:59;90543.72;;;11.10
43292;BMP280;28754;47.700;7.924;2023-04-24T00:35:46;90540.88;;;11.11
43292;BMP280;28754;47.700;7.924;2023-04-24T00:38:33;90544.00;;;11.08
43292;BMP280;28754;47.700;7.924;2023-04-24T00:41:20;90540.69;;;11.08
43292;BMP280;28754;47.700;7.924;2023-04-24T00:44:08;90539.91;;;11.07
43292;BMP280;28754;47.700;7.924;2023-04-24T00:46:55;90530.69;;;11.06
43292;BMP280;28754;47.700;7.924;2023-04-24T00:49:42;90537.34;;;11.07
43292;BMP280;28754;47.700;7.924;2023-04-24T00:52:29;90531.47;;;11.07
43292;BMP280;28754;47.700;7.924;2023-04-24T00:55:18;90534.28;;;11.05
43292;BMP280;28754;47.700;7.924;2023-04-24T00:58:05;90533.84;;;11.03
43292;BMP280;28754;47.700;7.924;2023-04-24T01:00:52;90543.03;;;11.04
43292;BMP280;28754;47.700;7.924;2023-04-24T01:03:40;90533.91;;;10.98
43292;BMP280;28754;47.700;7.924;2023-04-24T01:06:29;90543.13;;;10.99
43292;BMP280;28754;47.700;7.924;2023-04-24T01:09:18;90543.66;;;10.96
43292;BMP280;28754;47.700;7.924;2023-04-24T01:12:06;90528.38;;;10.92
43292;BMP280;28754;47.700;7.924;2023-04-24T01:14:53;90532.03;;;10.86
43292;BMP280;28754;47.700;7.924;2023-04-24T01:17:41;90532.88;;;10.81
43292;BMP280;28754;47.700;7.924;2023-04-24T01:20:28;90526.72;;;10.82
43292;BMP280;28754;47.700;7.924;2023-04-24T01:23:17;90531.06;;;10.82
43292;BMP280;28754;47.700;7.924;2023-04-24T01:26:04;90528.81;;;10.80
43292;BMP280;28754;47.700;7.924;2023-04-24T01:28:51;90525.94;;;10.82
43292;BMP280;28754;47.700;7.924;2023-04-24T01:31:40;90524.66;;;10.84
43292;BMP280;28754;47.700;7.924;2023-04-24T01:34:27;90514.94;;;10.81
43292;BMP280;28754;47.700;7.924;2023-04-24T01:37:13;90517.78;;;10.80
43292;BMP280;28754;47.700;7.924;2023-04-24T01:40:00;90522.44;;;10.78
43292;BMP280;28754;47.700;7.924;2023-04-24T01:42:47;90523.19;;;10.78
43292;BMP280;28754;47.700;7.924;2023-04-24T01:45:34;90512.97;;;10.78
43292;BMP280;28754;47.700;7.924;2023-04-24T01:48:24;90517.78;;;10.80
43292;BMP280;28754;47.700;7.924;2023-04-24T01:51:12;90514.47;;;10.79
43292;BMP280;28754;47.700;7.924;2023-04-24T01:53:59;90515.22;;;10.80
43292;BMP280;28754;47.700;7.924;2023-04-24T01:56:46;90517.59;;;10.76
43292;BMP280;28754;47.700;7.924;2023-04-24T01:59:34;90511.22;;;10.74
43292;BMP280;28754;47.700;7.924;2023-04-24T02:03:11;90517.59;;;10.76
43292;BMP280;28754;47.700;7.924;2023-04-24T02:06:24;90517.38;;;10.73
43292;BMP280;28754;47.700;7.924;2023-04-24T02:09:14;90517.44;;;10.68
43292;BMP280;28754;47.700;7.924;2023-04-24T02:12:00;90518.03;;;10.65
43292;BMP280;28754;47.700;7.924;2023-04-24T02:14:47;90518.03;;;10.65
43292;BMP280;28754;47.700;7.924;2023-04-24T02:17:34;90513.44;;;10.62
43292;BMP280;28754;47.700;7.924;2023-04-24T02:20:21;90511.72;;;10.58
43292;BMP280;28754;47.700;7.924;2023-04-24T02:23:08;90517.88;;;10.57
43292;BMP280;28754;47.700;7.924;2023-04-24T02:25:54;90511.03;;;10.52
43292;BMP280;28754;47.700;7.924;2023-04-24T02:28:42;90513.28;;;10.54
43292;BMP280;28754;47.700;7.924;2023-04-24T02:31:28;90514.34;;;10.53
43292;BMP280;28754;47.700;7.924;2023-04-24T02:34:15;90517.75;;;10.48
43292;BMP280;28754;47.700;7.924;2023-04-24T02:37:02;90516.75;;;10.44
43292;BMP280;28754;47.700;7.924;2023-04-24T02:39:49;90508.59;;;10.42
43292;BMP280;28754;47.700;7.924;2023-04-24T02:42:36;90526.28;;;10.39
43292;BMP280;28754;47.700;7.924;2023-04-24T02:45:22;90522.97;;;10.38
43292;BMP280;28754;47.700;7.924;2023-04-24T02:48:09;90515.03;;;10.40
43292;BMP280;28754;47.700;7.924;2023-04-24T02:50:56;90524.03;;;10.37
43292;BMP280;28754;47.700;7.924;2023-04-24T02:53:43;90530.66;;;10.38
43292;BMP280;28754;47.700;7.924;2023-04-24T02:56:30;90520.97;;;10.35
43292;BMP280;28754;47.700;7.924;2023-04-24T02:59:19;90537.34;;;10.34
43292;BMP280;28754;47.700;7.924;2023-04-24T03:02:06;90512.31;;;10.31
43292;BMP280;28754;47.700;7.924;2023-04-24T03:04:53;90531.81;;;10.27
43292;BMP280;28754;47.700;7.924;2023-04-24T03:07:40;90520.69;;;10.19
43292;BMP280;28754;47.700;7.924;2023-04-24T03:10:27;90522.00;;;10.16
43292;BMP280;28754;47.700;7.924;2023-04-24T03:13:16;90512.03;;;10.15
43292;BMP280;28754;47.700;7.924;2023-04-24T03:16:04;90507.41;;;10.17
43292;BMP280;28754;47.700;7.924;2023-04-24T03:18:51;90510.44;;;10.19
43292;BMP280;28754;47.700;7.924;2023-04-24T03:21:39;90510.94;;;10.21
43292;BMP280;28754;47.700;7.924;2023-04-24T03:24:27;90515.00;;;10.22
43292;BMP280;28754;47.700;7.924;2023-04-24T03:27:15;90513.19;;;10.22
43292;BMP280;28754;47.700;7.924;2023-04-24T03:30:20;90514.03;;;10.18
43292;BMP280;28754;47.700;7.924;2023-04-24T03:33:13;90516.47;;;10.09
43292;BMP280;28754;47.700;7.924;2023-04-24T03:36:08;90504.19;;;10.06
43292;BMP280;28754;47.700;7.924;2023-04-24T03:38:59;90520.59;;;10.05
43292;BMP280;28754;47.700;7.924;2023-04-24T03:41:52;90523.41;;;10.04
43292;BMP280;28754;47.700;7.924;2023-04-24T03:44:44;90534.63;;;10.08
43292;BMP280;28754;47.700;7.924;2023-04-24T03:47:30;90531.50;;;10.11
43292;BMP280;28754;47.700;7.924;2023-04-24T03:50:20;90526.94;;;10.08
43292;BMP280;28754;47.700;7.924;2023-04-24T03:53:08;90530.59;;;10.02
43292;BMP280;28754;47.700;7.924;2023-04-24T03:55:59;90540.59;;;9.98
43292;BMP280;28754;47.700;7.924;2023-04-24T03:58:45;90527.63;;;9.95
43292;BMP280;28754;47.700;7.924;2023-04-24T04:01:37;90530.47;;;9.89
43292;BMP280;28754;47.700;7.924;2023-04-24T04:04:33;90530.72;;;9.87
43292;BMP280;28754;47.700;7.924;2023-04-24T04:07:20;90549.44;;;9.83
43292;BMP280;28754;47.700;7.924;2023-04-24T04:10:07;90562.78;;;9.80
43292;BMP280;28754;47.700;7.924;2023-04-24T04:12:57;90561.03;;;9.75
43292;BMP280;28754;47.700;7.924;2023-04-24T04:15:43;90556.50;;;9.67
43292;BMP280;28754;47.700;7.924;2023-04-24T04:18:30;90568.31;;;9.63
43292;BMP280;28754;47.700;7.924;2023-04-24T04:21:17;90566.00;;;9.62
43292;BMP280;28754;47.700;7.924;2023-04-24T04:24:04;90557.53;;;9.66
43292;BMP280;28754;47.700;7.924;2023-04-24T04:26:57;90564.72;;;9.64
43292;BMP280;28754;47.700;7.924;2023-04-24T04:29:56;90561.69;;;9.62
43292;BMP280;28754;47.700;7.924;2023-04-24T04:32:44;90568.56;;;9.62
43292;BMP280;28754;47.700;7.924;2023-04-24T04:35:30;90574.47;;;9.57
43292;BMP280;28754;47.700;7.924;2023-04-24T04:38:19;90575.53;;;9.57
43292;BMP280;28754;47.700;7.924;2023-04-24T04:41:12;90585.25;;;9.55
43292;BMP280;28754;47.700;7.924;2023-04-24T04:43:58;90586.78;;;9.56
43292;BMP280;28754;47.700;7.924;2023-04-24T04:46:46;90585.00;;;9.56
43292;BMP280;28754;47.700;7.924;2023-04-24T04:49:46;90596.72;;;9.57
43292;BMP280;28754;47.700;7.924;2023-04-24T04:52:41;90599.06;;;9.54
43292;BMP280;28754;47.700;7.924;2023-04-24T04:55:41;90600.34;;;9.51
43292;BMP280;28754;47.700;7.924;2023-04-24T04:58:31;90615.47;;;9.48
43292;BMP280;28754;47.700;7.924;2023-04-24T05:01:20;90600.16;;;9.48
43292;BMP280;28754;47.700;7.924;2023-04-24T05:04:10;90613.44;;;9.45
43292;BMP280;28754;47.700;7.924;2023-04-24T05:06:57;90608.31;;;9.45
43292;BMP280;28754;47.700;7.924;2023-04-24T05:09:46;90617.53;;;9.46
43292;BMP280;28754;47.700;7.924;2023-04-24T05:12:33;90633.63;;;9.46
43292;BMP280;28754;47.700;7.924;2023-04-24T05:15:22;90627.97;;;9.49
43292;BMP280;28754;47.700;7.924;2023-04-24T05:18:08;90625.69;;;9.48
43292;BMP280;28754;47.700;7.924;2023-04-24T05:20:55;90628.75;;;9.50
43292;BMP280;28754;47.700;7.924;2023-04-24T05:23:42;90643.59;;;9.48
43292;BMP280;28754;47.700;7.924;2023-04-24T05:26:34;90648.22;;;9.41
43292;BMP280;28754;47.700;7.924;2023-04-24T05:29:22;90644.69;;;9.37
43292;BMP280;28754;47.700;7.924;2023-04-24T05:32:08;90648.25;;;9.36
43292;BMP280;28754;47.700;7.924;2023-04-24T05:34:55;90649.56;;;9.33
43292;BMP280;28754;47.700;7.924;2023-04-24T05:37:42;90647.81;;;9.29
43292;BMP280;28754;47.700;7.924;2023-04-24T05:40:30;90654.47;;;9.25
43292;BMP280;28754;47.700;7.924;2023-04-24T05:43:17;90660.38;;;9.21
43292;BMP280;28754;47.700;7.924;2023-04-24T05:46:04;90672.41;;;9.15
43292;BMP280;28754;47.700;7.924;2023-04-24T05:48:51;90675.25;;;9.14
43292;BMP280;28754;47.700;7.924;2023-04-24T05:51:38;90667.06;;;9.12
43292;BMP280;28754;47.700;7.924;2023-04-24T05:54:26;90665.28;;;9.12
43292;BMP280;28754;47.700;7.924;2023-04-24T05:57:13;90676.00;;;9.14
43292;BMP280;28754;47.700;7.924;2023-04-24T06:00:30;90679.00;;;9.21
43292;BMP280;28754;47.700;7.924;2023-04-24T06:03:23;90685.63;;;9.27
43292;BMP280;28754;47.700;7.924;2023-04-24T06:06:10;90688.13;;;9.32
43292;BMP280;28754;47.700;7.924;2023-04-24T06:08:57;90676.63;;;9.34
43292;BMP280;28754;47.700;7.924;2023-04-24T06:11:45;90676.41;;;9.31
43292;BMP280;28754;47.700;7.924;2023-04-24T06:14:34;90685.38;;;9.23
43292;BMP280;28754;47.700;7.924;2023-04-24T06:17:44;90682.31;;;9.22
43292;BMP280;28754;47.700;7.924;2023-04-24T06:20:34;90685.16;;;9.20
43292;BMP280;28754;47.700;7.924;2023-04-24T06:23:22;90680.31;;;9.19
43292;BMP280;28754;47.700;7.924;2023-04-24T06:26:08;90673.91;;;9.21
43292;BMP280;28754;47.700;7.924;2023-04-24T06:29:33;90659.63;;;9.20
43292;BMP280;28754;47.700;7.924;2023-04-24T06:32:24;90675.94;;;9.24
43292;BMP280;28754;47.700;7.924;2023-04-24T06:35:11;90688.97;;;9.23
43292;BMP280;28754;47.700;7.924;2023-04-24T06:37:58;90691.56;;;9.13
43292;BMP280;28754;47.700;7.924;2023-04-24T06:40:45;90687.34;;;8.98
43292;BMP280;28754;47.700;7.924;2023-04-24T06:43:32;90707.81;;;8.89
43292;BMP280;28754;47.700;7.924;2023-04-24T06:46:18;90718.28;;;8.82
43292;BMP280;28754;47.700;7.924;2023-04-24T06:49:05;90711.44;;;8.78
43292;BMP280;28754;47.700;7.924;2023-04-24T06:51:52;90732.88;;;8.72
43292;BMP280;28754;47.700;7.924;2023-04-24T06:54:38;90721.44;;;8.64
43292;BMP280;28754;47.700;7.924;2023-04-24T06:57:25;90727.53;;;8.63
43292;BMP280;28754;47.700;7.924;2023-04-24T07:00:13;90734.69;;;8.71
43292;BMP280;28754;47.700;7.924;2023-04-24T07:02:59;90735.16;;;8.83
43292;BMP280;28754;47.700;7.924;2023-04-24T07:05:46;90734.81;;;8.99
43292;BMP280;28754;47.700;7.924;2023-04-24T07:08:34;90729.66;;;9.09
43292;BMP280;28754;47.700;7.924;2023-04-24T07:11:20;90731.13;;;9.20
43292;BMP280;28754;47.700;7.924;2023-04-24T07:14:07;90726.75;;;9.25
43292;BMP280;28754;47.700;7.924;2023-04-24T07:16:54;90735.66;;;9.33
43292;BMP280;28754;47.700;7.924;2023-04-24T07:19:41;90740.91;;;9.51
43292;BMP280;28754;47.700;7.924;2023-04-24T07:22:28;90744.69;;;9.58
43292;BMP280;28754;47.700;7.924;2023-04-24T07:25:14;90746.72;;;9.61
43292;BMP280;28754;47.700;7.924;2023-04-24T07:28:01;90749.53;;;9.60
43292;BMP280;28754;47.700;7.924;2023-04-24T07:30:48;90753.38;;;9.57
43292;BMP280;28754;47.700;7.924;2023-04-24T07:33:34;90754.47;;;9.52
43292;BMP280;28754;47.700;7.924;2023-04-24T07:36:22;90759.06;;;9.50
43292;BMP280;28754;47.700;7.924;2023-04-24T07:39:10;90759.06;;;9.50
43292;BMP280;28754;47.700;7.924;2023-04-24T07:41:57;90756.97;;;9.57
43292;BMP280;28754;47.700;7.924;2023-04-24T07:44:45;90768.19;;;9.60
43292;BMP280;28754;47.700;7.924;2023-04-24T07:47:34;90758.97;;;9.64
43292;BMP280;28754;47.700;7.924;2023-04-24T07:50:21;90773.72;;;9.77
43292;BMP280;28754;47.700;7.924;2023-04-24T07:53:08;90771.56;;;9.89
43292;BMP280;28754;47.700;7.924;2023-04-24T07:55:56;90773.97;;;10.14
43292;BMP280;28754;47.700;7.924;2023-04-24T07:58:42;90787.78;;;10.41
43292;BMP280;28754;47.700;7.924;2023-04-24T08:01:29;90780.91;;;10.64
43292;BMP280;28754;47.700;7.924;2023-04-24T08:04:16;90775.28;;;10.91
43292;BMP280;28754;47.700;7.924;2023-04-24T08:07:04;90778.19;;;11.02
43292;BMP280;28754;47.700;7.924;2023-04-24T08:09:50;90790.09;;;10.94
43292;BMP280;28754;47.700;7.924;2023-04-24T08:12:38;90786.25;;;10.68
43292;BMP280;28754;47.700;7.924;2023-04-24T08:15:24;90805.84;;;10.54
43292;BMP280;28754;47.700;7.924;2023-04-24T08:18:11;90804.50;;;10.33
43292;BMP280;28754;47.700;7.924;2023-04-24T08:20:59;90803.81;;;10.23
43292;BMP280;28754;47.700;7.924;2023-04-24T08:23:47;90818.41;;;10.23
43292;BMP280;28754;47.700;7.924;2023-04-24T08:26:37;90811.53;;;10.18
43292;BMP280;28754;47.700;7.924;2023-04-24T08:29:24;90821.06;;;10.08
43292;BMP280;28754;47.700;7.924;2023-04-24T08:32:11;90813.47;;;9.98
43292;BMP280;28754;47.700;7.924;2023-04-24T08:34:58;90825.53;;;9.93
43292;BMP280;28754;47.700;7.924;2023-04-24T08:37:45;90820.69;;;9.91
43292;BMP280;28754;47.700;7.924;2023-04-24T08:40:34;90833.97;;;9.88
43292;BMP280;28754;47.700;7.924;2023-04-24T08:43:22;90828.38;;;9.86
43292;BMP280;28754;47.700;7.924;2023-04-24T08:46:10;90836.28;;;9.85
43292;BMP280;28754;47.700;7.924;2023-04-24T08:48:58;90845.25;;;9.82
43292;BMP280;28754;47.700;7.924;2023-04-24T08:51:45;90838.63;;;9.76
43292;BMP280;28754;47.700;7.924;2023-04-24T08:54:35;90846.84;;;9.68
43292;BMP280;28754;47.700;7.924;2023-04-24T08:57:22;90834.84;;;9.69
43292;BMP280;28754;47.700;7.924;2023-04-24T09:00:10;90849.66;;;9.72
43292;BMP280;28754;47.700;7.924;2023-04-24T09:02:59;90846.25;;;9.81
43292;BMP280;28754;47.700;7.924;2023-04-24T09:05:48;90861.59;;;9.81
43292;BMP280;28754;47.700;7.924;2023-04-24T09:08:37;90857.53;;;9.80
43292;BMP280;28754;47.700;7.924;2023-04-24T09:11:26;90843.94;;;9.90
43292;BMP280;28754;47.700;7.924;2023-04-24T09:14:13;90855.63;;;10.05
43292;BMP280;28754;47.700;7.924;2023-04-24T09:17:00;90845.66;;;10.04
43292;BMP280;28754;47.700;7.924;2023-04-24T09:19:47;90849.78;;;10.00
43292;BMP280;28754;47.700;7.924;2023-04-24T09:22:34;90853.13;;;9.95
43292;BMP280;28754;47.700;7.924;2023-04-24T09:25:21;90859.50;;;10.03
43292;BMP280;28754;47.700;7.924;2023-04-24T09:28:08;90856.44;;;10.01
43292;BMP280;28754;47.700;7.924;2023-04-24T09:31:13;90863.00;;;10.12
43292;BMP280;28754;47.700;7.924;2023-04-24T09:34:05;90857.09;;;10.11
43292;BMP280;28754;47.700;7.924;2023-04-24T09:36:54;90866.13;;;10.04
43292;BMP280;28754;47.700;7.924;2023-04-24T09:39:41;90877.41;;;9.98
43292;BMP280;28754;47.700;7.924;2023-04-24T09:42:29;90859.84;;;10.20
43292;BMP280;28754;47.700;7.924;2023-04-24T09:45:16;90872.88;;;10.61
43292;BMP280;28754;47.700;7.924;2023-04-24T09:48:03;90863.88;;;10.92
43292;BMP280;28754;47.700;7.924;2023-04-24T09:50:52;90866.88;;;10.98
43292;BMP280;28754;47.700;7.924;2023-04-24T09:53:39;90870.06;;;10.86
43292;BMP280;28754;47.700;7.924;2023-04-24T09:56:33;90876.94;;;10.62
43292;BMP280;28754;47.700;7.924;2023-04-24T09:59:24;90888.59;;;10.45
43292;BMP280;28754;47.700;7.924;2023-04-24T10:02:19;90894.84;;;10.29
43292;BMP280;28754;47.700;7.924;2023-04-24T10:05:07;90896.47;;;10.15
43292;BMP280;28754;47.700;7.924;2023-04-24T10:08:04;90888.84;;;10.10
43292;BMP280;28754;47.700;7.924;2023-04-24T10:10:52;90903.69;;;10.08
43292;BMP280;28754;47.700;7.924;2023-04-24T10:13:42;90889.09;;;10.09
43292;BMP280;28754;47.700;7.924;2023-04-24T10:16:29;90890.09;;;10.13
43292;BMP280;28754;47.700;7.924;2023-04-24T10:19:17;90902.06;;;10.22
43292;BMP280;28754;47.700;7.924;2023-04-24T10:22:11;90907.38;;;10.30
43292;BMP280;28754;47.700;7.924;2023-04-24T10:24:59;90891.97;;;10.40
43292;BMP280;28754;47.700;7.924;2023-04-24T10:27:50;90897.53;;;10.47
43292;BMP280;28754;47.700;7.924;2023-04-24T10:30:48;90895.16;;;10.56
43292;BMP280;28754;47.700;7.924;2023-04-24T10:33:38;90897.28;;;10.49
43292;BMP280;28754;47.700;7.924;2023-04-24T10:36:32;90892.50;;;10.37
43292;BMP280;28754;47.700;7.924;2023-04-24T10:39:20;90894.50;;;10.40
43292;BMP280;28754;47.700;7.924;2023-04-24T10:42:51;90894.25;;;10.42
43292;BMP280;28754;47.700;7.924;2023-04-24T10:46:05;90899.59;;;10.45
43292;BMP280;28754;47.700;7.924;2023-04-24T10:48:56;90909.06;;;10.45
43292;BMP280;28754;47.700;7.924;2023-04-24T10:51:51;90898.06;;;10.44
43292;BMP280;28754;47.700;7.924;2023-04-24T10:54:46;90904.44;;;10.47
43292;BMP280;28754;47.700;7.924;2023-04-24T10:57:33;90903.41;;;10.48
43292;BMP280;28754;47.700;7.924;2023-04-24T11:00:21;90909.06;;;10.45
43292;BMP280;28754;47.700;7.924;2023-04-24T11:03:28;90907.31;;;10.40
43292;BMP280;28754;47.700;7.924;2023-04-24T11:06:15;90909.31;;;10.43
43292;BMP280;28754;47.700;7.924;2023-04-24T11:09:07;90906.47;;;10.50
43292;BMP280;28754;47.700;7.924;2023-04-24T11:12:05;90901.84;;;10.52
43292;BMP280;28754;47.700;7.924;2023-04-24T11:17:44;90909.31;;;10.48
43292;BMP280;28754;47.700;7.924;2023-04-24T11:20:30;90914.69;;;10.47
43292;BMP280;28754;47.700;7.924;2023-04-24T11:23:18;90913.88;;;10.51
43292;BMP280;28754;47.700;7.924;2023-04-24T11:26:18;90916.34;;;10.66
43292;BMP280;28754;47.700;7.924;2023-04-24T11:29:08;90913.16;;;10.79
43292;BMP280;28754;47.700;7.924;2023-04-24T11:31:55;90901.59;;;10.81
43292;BMP280;28754;47.700;7.924;2023-04-24T11:34:47;90917.47;;;10.83
43292;BMP280;28754;47.700;7.924;2023-04-24T11:37:38;90911.59;;;10.83
43292;BMP280;28754;47.700;7.924;2023-04-24T11:40:25;90920.22;;;10.92
43292;BMP280;28754;47.700;7.924;2023-04-24T11:43:12;90907.53;;;11.05
43292;BMP280;28754;47.700;7.924;2023-04-24T11:46:01;90923.69;;;11.29
43292;BMP280;28754;47.700;7.924;2023-04-24T11:48:48;90916.19;;;11.37
43292;BMP280;28754;47.700;7.924;2023-04-24T11:51:35;90918.44;;;11.43
43292;BMP280;28754;47.700;7.924;2023-04-24T11:54:21;90919.69;;;11.46
43292;BMP280;28754;47.700;7.924;2023-04-24T11:57:08;90918.06;;;11.55
43292;BMP280;28754;47.700;7.924;2023-04-24T11:59:55;90919.00;;;11.64
43292;BMP280;28754;47.700;7.924;2023-04-24T12:02:42;90913.66;;;11.83
43292;BMP280;28754;47.700;7.924;2023-04-24T12:05:29;90921.34;;;11.83
43292;BMP280;28754;47.700;7.924;2023-04-24T12:08:28;90924.44;;;11.80
43292;BMP280;28754;47.700;7.924;2023-04-24T12:11:16;90921.09;;;11.62
43292;BMP280;28754;47.700;7.924;2023-04-24T12:14:13;90931.50;;;11.42
43292;BMP280;28754;47.700;7.924;2023-04-24T12:17:03;90933.63;;;11.35
43292;BMP280;28754;47.700;7.924;2023-04-24T12:19:49;90935.69;;;11.33
43292;BMP280;28754;47.700;7.924;2023-04-24T12:22:52;90932.25;;;11.19
43292;BMP280;28754;47.700;7.924;2023-04-24T12:25:42;90926.69;;;11.12
43292;BMP280;28754;47.700;7.924;2023-04-24T12:28:36;90913.84;;;11.17
43292;BMP280;28754;47.700;7.924;2023-04-24T12:31:23;90923.13;;;11.36
43292;BMP280;28754;47.700;7.924;2023-04-24T12:34:22;90924.09;;;11.40
43292;BMP280;28754;47.700;7.924;2023-04-24T12:37:13;90916.81;;;11.29
43292;BMP280;28754;47.700;7.924;2023-04-24T12:40:06;90920.44;;;11.23
43292;BMP280;28754;47.700;7.924;2023-04-24T12:42:53;90922.88;;;11.10
43292;BMP280;28754;47.700;7.924;2023-04-24T12:45:40;90920.91;;;11.02
43292;BMP280;28754;47.700;7.924;2023-04-24T12:48:28;90930.41;;;10.96
43292;BMP280;28754;47.700;7.924;2023-04-24T12:51:15;90924.53;;;10.96
43292;BMP280;28754;47.700;7.924;2023-04-24T12:54:02;90931.47;;;10.96
43292;BMP280;28754;47.700;7.924;2023-04-24T12:56:51;90934.66;;;11.11
43292;BMP280;28754;47.700;7.924;2023-04-24T12:59:47;90912.03;;;11.41
43292;BMP280;28754;47.700;7.924;2023-04-24T13:02:40;90923.50;;;11.53
43292;BMP280;28754;47.700;7.924;2023-04-24T13:05:27;90925.63;;;11.46
43292;BMP280;28754;47.700;7.924;2023-04-24T13:08:16;90929.00;;;11.37
43292;BMP280;28754;47.700;7.924;2023-04-24T13:11:03;90922.25;;;11.23
43292;BMP280;28754;47.700;7.924;2023-04-24T13:13:50;90927.53;;;11.31
43292;BMP280;28754;47.700;7.924;2023-04-24T13:16:37;90925.75;;;11.55
43292;BMP280;28754;47.700;7.924;2023-04-24T13:19:27;90920.53;;;11.65
43292;BMP280;28754;47.700;7.924;2023-04-24T13:22:14;90915.25;;;11.56
43292;BMP280;28754;47.700;7.924;2023-04-24T13:25:00;90928.94;;;11.47
43292;BMP280;28754;47.700;7.924;2023-04-24T13:27:53;90926.72;;;11.35
43292;BMP280;28754;47.700;7.924;2023-04-24T13:30:40;90917.31;;;11.26
43292;BMP280;28754;47.700;7.924;2023-04-24T13:33:27;90935.53;;;11.25
43292;BMP280;28754;47.700;7.924;2023-04-24T13:36:14;90924.31;;;11.21
43292;BMP280;28754;47.700;7.924;2023-04-24T13:39:01;90917.22;;;11.13
43292;BMP280;28754;47.700;7.924;2023-04-24T13:41:47;90917.69;;;11.15
43292;BMP280;28754;47.700;7.924;2023-04-24T13:44:34;90911.66;;;11.29
43292;BMP280;28754;47.700;7.924;2023-04-24T13:47:21;90913.84;;;11.40
43292;BMP280;28754;47.700;7.924;2023-04-24T13:50:09;90902.84;;;11.40
43292;BMP280;28754;47.700;7.924;2023-04-24T13:52:56;90920.00;;;11.39
43292;BMP280;28754;47.700;7.924;2023-04-24T13:55:52;90909.53;;;11.36
43292;BMP280;28754;47.700;7.924;2023-04-24T13:58:38;90898.81;;;11.34
43292;BMP280;28754;47.700;7.924;2023-04-24T14:01:26;90894.84;;;11.41
43292;BMP280;28754;47.700;7.924;2023-04-24T14:04:12;90898.47;;;11.40
43292;BMP280;28754;47.700;7.924;2023-04-24T14:06:59;90898.81;;;11.34
43292;BMP280;28754;47.700;7.924;2023-04-24T14:09:52;90895.25;;;11.30
43292;BMP280;28754;47.700;7.924;2023-04-24T14:12:39;90890.38;;;11.29
43292;BMP280;28754;47.700;7.924;2023-04-24T14:15:26;90888.13;;;11.27
43292;BMP280;28754;47.700;7.924;2023-04-24T14:18:12;90883.94;;;11.31
43292;BMP280;28754;47.700;7.924;2023-04-24T14:20:59;90886.50;;;11.31
43292;BMP280;28754;47.700;7.924;2023-04-24T14:23:47;90881.94;;;11.28
43292;BMP280;28754;47.700;7.924;2023-04-24T14:26:34;90891.81;;;11.16
43292;BMP280;28754;47.700;7.924;2023-04-24T14:29:23;90897.91;;;11.20
43292;BMP280;28754;47.700;7.924;2023-04-24T14:32:12;90888.53;;;11.34
43292;BMP280;28754;47.700;7.924;2023-04-24T14:35:01;90886.94;;;11.43
43292;BMP280;28754;47.700;7.924;2023-04-24T14:37:50;90891.97;;;11.53
43292;BMP280;28754;47.700;7.924;2023-04-24T14:40:37;90893.03;;;11.70
43292;BMP280;28754;47.700;7.924;2023-04-24T14:43:24;90889.56;;;11.79
43292;BMP280;28754;47.700;7.924;2023-04-24T14:46:11;90894.94;;;11.83
43292;BMP280;28754;47.700;7.924;2023-04-24T14:48:58;90908.84;;;11.77
43292;BMP280;28754;47.700;7.924;2023-04-24T14:51:45;90895.75;;;11.78
43292;BMP280;28754;47.700;7.924;2023-04-24T14:54:32;90887.44;;;11.86
43292;BMP280;28754;47.700;7.924;2023-04-24T14:57:18;90891.69;;;11.96
43292;BMP280;28754;47.700;7.924;2023-04-24T15:00:06;90891.47;;;11.92
43292;BMP280;28754;47.700;7.924;2023-04-24T15:02:56;90892.56;;;11.86
43292;BMP280;28754;47.700;7.924;2023-04-24T15:05:43;90892.22;;;11.74
43292;BMP280;28754;47.700;7.924;2023-04-24T15:08:30;90886.94;;;11.66
43292;BMP280;28754;47.700;7.924;2023-04-24T15:11:17;90889.25;;;11.63
43292;BMP280;28754;47.700;7.924;2023-04-24T15:14:04;90887.38;;;11.50
43292;BMP280;28754;47.700;7.924;2023-04-24T15:16:50;90901.56;;;11.37
43292;BMP280;28754;47.700;7.924;2023-04-24T15:19:37;90890.88;;;11.30
43292;BMP280;28754;47.700;7.924;2023-04-24T15:22:24;90894.06;;;11.23
43292;BMP280;28754;47.700;7.924;2023-04-24T15:25:11;90897.16;;;11.20
43292;BMP280;28754;47.700;7.924;2023-04-24T15:27:58;90896.63;;;11.23
43292;BMP280;28754;47.700;7.924;2023-04-24T15:30:45;90896.06;;;11.26
43292;BMP280;28754;47.700;7.924;2023-04-24T15:33:34;90898.91;;;11.24
43292;BMP280;28754;47.700;7.924;2023-04-24T15:36:27;90896.06;;;11.26
43292;BMP280;28754;47.700;7.924;2023-04-24T15:39:23;90893.78;;;11.24
43292;BMP280;28754;47.700;7.924;2023-04-24T15:42:16;90888.63;;;11.24
43292;BMP280;28754;47.700;7.924;2023-04-24T15:45:12;90876.13;;;11.23
43292;BMP280;28754;47.700;7.924;2023-04-24T15:48:09;90891.44;;;11.28
43292;BMP280;28754;47.700;7.924;2023-04-24T15:50:55;90883.19;;;11.30
43292;BMP280;28754;47.700;7.924;2023-04-24T16:02:23;90867.72;;;11.17
43292;BMP280;28754;47.700;7.924;2023-04-24T16:06:02;90890.81;;;11.12
43292;BMP280;28754;47.700;7.924;2023-04-24T16:35:45;90885.41;;;10.91
43292;BMP280;28754;47.700;7.924;2023-04-24T16:43:57;90894.72;;;10.77
43292;BMP280;28754;47.700;7.924;2023-04-24T16:47:08;90888.91;;;10.71
43292;BMP280;28754;47.700;7.924;2023-04-24T17:09:27;90890.91;;;10.46
43292;BMP280;28754;47.700;7.924;2023-04-24T17:12:25;90897.78;;;10.51
43292;BMP280;28754;47.700;7.924;2023-04-24T17:15:41;90898.78;;;10.50
43292;BMP280;28754;47.700;7.924;2023-04-24T17:18:48;90888.09;;;10.43
43292;BMP280;28754;47.700;7.924;2023-04-24T17:21:42;90893.44;;;10.46
43292;BMP280;28754;47.700;7.924;2023-04-24T17:24:37;90879.41;;;10.39